sensor_id;sensor_type;location;lat;lon;timestamp;P1;durP1;ratioP1;P2;durP2;ratioP2
22995;SDS011;11664;49.774;8.650;2023-03-22T00:00:05;5.00;;;4.50;;
22995;SDS011;11664;49.774;8.650;2023-03-22T00:02:42;8.70;;;5.28;;
22995;SDS011;11664;49.774;8.650;2023-03-22T00:05:08;5.70;;;4.25;;
22995;SDS011;11664;49.774;8.650;2023-03-22T00:07:40;5.70;;;4.10;;
22995;SDS011;11664;49.774;8.650;2023-03-22T00:10:08;5.07;;;4.47;;
22995;SDS011;11664;49.774;8.650;2023-03-22T00:12:37;7.20;;;4.80;;
22995;SDS011;11664;49.774;8.650;2023-03-22T00:15:05;7.53;;;5.50;;
22995;SDS011;11664;49.774;8.650;2023-03-22T00:17:37;5.80;;;5.30;;
22995;SDS011;11664;49.774;8.650;2023-03-22T00:20:06;6.00;;;5.40;;
22995;SDS011;11664;49.774;8.650;2023-03-22T00:22:38;6.93;;;6.32;;
22995;SDS011;11664;49.774;8.650;2023-03-22T00:25:13;6.32;;;5.40;;
22995;SDS011;11664;49.774;8.650;2023-03-22T00:27:41;7.35;;;6.13;;
22995;SDS011;11664;49.774;8.650;2023-03-22T00:30:07;5.25;;;4.80;;
22995;SDS011;11664;49.774;8.650;2023-03-22T00:32:34;5.53;;;4.60;;
22995;SDS011;11664;49.774;8.650;2023-03-22T00:35:07;5.05;;;4.55;;
22995;SDS011;11664;49.774;8.650;2023-03-22T00:37:34;4.57;;;4.20;;
22995;SDS011;11664;49.774;8.650;2023-03-22T00:40:10;4.50;;;4.10;;
22995;SDS011;11664;49.774;8.650;2023-03-22T00:42:39;5.88;;;4.00;;
22995;SDS011;11664;49.774;8.650;2023-03-22T00:45:06;4.70;;;4.22;;
22995;SDS011;11664;49.774;8.650;2023-03-22T00:47:35;5.35;;;4.15;;
22995;SDS011;11664;49.774;8.650;2023-03-22T00:50:01;5.63;;;3.95;;
22995;SDS011;11664;49.774;8.650;2023-03-22T00:52:27;5.03;;;4.00;;
22995;SDS011;11664;49.774;8.650;2023-03-22T00:54:53;5.15;;;4.00;;
22995;SDS011;11664;49.774;8.650;2023-03-22T00:57:34;3.75;;;3.45;;
22995;SDS011;11664;49.774;8.650;2023-03-22T01:00:00;6.90;;;4.57;;
22995;SDS011;11664;49.774;8.650;2023-03-22T01:02:43;4.68;;;4.28;;
22995;SDS011;11664;49.774;8.650;2023-03-22T01:05:08;5.25;;;4.07;;
22995;SDS011;11664;49.774;8.650;2023-03-22T01:07:48;5.93;;;4.32;;
22995;SDS011;11664;49.774;8.650;2023-03-22T01:10:18;4.93;;;3.92;;
22995;SDS011;11664;49.774;8.650;2023-03-22T01:12:44;4.70;;;4.15;;
22995;SDS011;11664;49.774;8.650;2023-03-22T01:15:13;5.22;;;4.82;;
22995;SDS011;11664;49.774;8.650;2023-03-22T01:17:52;4.97;;;4.50;;
22995;SDS011;11664;49.774;8.650;2023-03-22T01:20:17;4.30;;;3.90;;
22995;SDS011;11664;49.774;8.650;2023-03-22T01:22:52;5.40;;;4.90;;
22995;SDS011;11664;49.774;8.650;2023-03-22T01:25:18;5.40;;;4.90;;
22995;SDS011;11664;49.774;8.650;2023-03-22T01:27:56;7.40;;;5.00;;
22995;SDS011;11664;49.774;8.650;2023-03-22T01:30:31;6.00;;;5.28;;
22995;SDS011;11664;49.774;8.650;2023-03-22T01:32:59;5.90;;;5.35;;
22995;SDS011;11664;49.774;8.650;2023-03-22T01:38:09;5.20;;;4.80;;
22995;SDS011;11664;49.774;8.650;2023-03-22T01:40:38;8.05;;;6.03;;
22995;SDS011;11664;49.774;8.650;2023-03-22T01:43:13;6.97;;;5.43;;
22995;SDS011;11664;49.774;8.650;2023-03-22T01:45:50;6.60;;;4.90;;
22995;SDS011;11664;49.774;8.650;2023-03-22T01:48:24;5.38;;;4.88;;
22995;SDS011;11664;49.774;8.650;2023-03-22T01:53:53;4.72;;;4.35;;
22995;SDS011;11664;49.774;8.650;2023-03-22T01:58:52;7.38;;;4.90;;
22995;SDS011;11664;49.774;8.650;2023-03-22T02:01:22;5.00;;;4.35;;
22995;SDS011;11664;49.774;8.650;2023-03-22T02:04:08;6.97;;;4.90;;
22995;SDS011;11664;49.774;8.650;2023-03-22T02:06:43;5.47;;;4.35;;
22995;SDS011;11664;49.774;8.650;2023-03-22T02:09:16;6.05;;;4.20;;
22995;SDS011;11664;49.774;8.650;2023-03-22T02:11:48;5.82;;;4.82;;
22995;SDS011;11664;49.774;8.650;2023-03-22T02:29:06;6.53;;;4.38;;
22995;SDS011;11664;49.774;8.650;2023-03-22T02:34:30;5.82;;;5.32;;
22995;SDS011;11664;49.774;8.650;2023-03-22T02:40:07;5.15;;;4.50;;
22995;SDS011;11664;49.774;8.650;2023-03-22T02:48:52;5.73;;;5.13;;
22995;SDS011;11664;49.774;8.650;2023-03-22T02:57:49;5.32;;;4.43;;
22995;SDS011;11664;49.774;8.650;2023-03-22T03:00:05;4.82;;;4.43;;
22995;SDS011;11664;49.774;8.650;2023-03-22T03:02:36;5.63;;;4.35;;
22995;SDS011;11664;49.774;8.650;2023-03-22T03:05:15;5.72;;;4.97;;
22995;SDS011;11664;49.774;8.650;2023-03-22T03:10:29;4.15;;;3.85;;
22995;SDS011;11664;49.774;8.650;2023-03-22T03:13:07;6.75;;;4.63;;
22995;SDS011;11664;49.774;8.650;2023-03-22T03:15:45;6.97;;;4.82;;
22995;SDS011;11664;49.774;8.650;2023-03-22T03:24:34;4.90;;;4.35;;
22995;SDS011;11664;49.774;8.650;2023-03-22T03:27:30;7.60;;;4.60;;
22995;SDS011;11664;49.774;8.650;2023-03-22T03:30:19;4.53;;;4.10;;
22995;SDS011;11664;49.774;8.650;2023-03-22T03:33:02;4.70;;;4.22;;
22995;SDS011;11664;49.774;8.650;2023-03-22T03:38:19;5.10;;;4.43;;
22995;SDS011;11664;49.774;8.650;2023-03-22T03:40:50;5.00;;;4.47;;
22995;SDS011;11664;49.774;8.650;2023-03-22T03:43:19;6.20;;;5.60;;
22995;SDS011;11664;49.774;8.650;2023-03-22T03:45:53;8.20;;;4.70;;
22995;SDS011;11664;49.774;8.650;2023-03-22T03:48:27;7.25;;;4.60;;
22995;SDS011;11664;49.774;8.650;2023-03-22T03:50:54;5.05;;;4.65;;
22995;SDS011;11664;49.774;8.650;2023-03-22T03:53:24;5.65;;;4.03;;
22995;SDS011;11664;49.774;8.650;2023-03-22T03:55:59;6.72;;;6.05;;
22995;SDS011;11664;49.774;8.650;2023-03-22T03:58:31;6.63;;;5.22;;
22995;SDS011;11664;49.774;8.650;2023-03-22T04:01:00;10.77;;;4.90;;
22995;SDS011;11664;49.774;8.650;2023-03-22T04:03:28;5.20;;;4.80;;
22995;SDS011;11664;49.774;8.650;2023-03-22T04:05:55;6.40;;;5.80;;
22995;SDS011;11664;49.774;8.650;2023-03-22T04:08:20;4.97;;;4.57;;
22995;SDS011;11664;49.774;8.650;2023-03-22T04:10:50;6.97;;;6.38;;
22995;SDS011;11664;49.774;8.650;2023-03-22T04:13:16;6.88;;;6.18;;
22995;SDS011;11664;49.774;8.650;2023-03-22T04:15:52;5.60;;;5.18;;
22995;SDS011;11664;49.774;8.650;2023-03-22T04:18:21;6.00;;;5.40;;
22995;SDS011;11664;49.774;8.650;2023-03-22T04:21:02;5.40;;;5.00;;
22995;SDS011;11664;49.774;8.650;2023-03-22T04:23:38;6.40;;;5.55;;
22995;SDS011;11664;49.774;8.650;2023-03-22T04:26:11;6.97;;;5.95;;
22995;SDS011;11664;49.774;8.650;2023-03-22T04:28:43;5.30;;;4.47;;
22995;SDS011;11664;49.774;8.650;2023-03-22T04:31:08;4.85;;;4.43;;
22995;SDS011;11664;49.774;8.650;2023-03-22T04:33:37;5.93;;;5.45;;
22995;SDS011;11664;49.774;8.650;2023-03-22T04:36:09;7.65;;;4.68;;
22995;SDS011;11664;49.774;8.650;2023-03-22T04:38:38;9.85;;;5.97;;
22995;SDS011;11664;49.774;8.650;2023-03-22T04:41:09;6.55;;;6.05;;
22995;SDS011;11664;49.774;8.650;2023-03-22T04:43:41;8.82;;;8.00;;
22995;SDS011;11664;49.774;8.650;2023-03-22T04:46:14;9.55;;;8.77;;
22995;SDS011;11664;49.774;8.650;2023-03-22T04:48:39;12.13;;;11.18;;
22995;SDS011;11664;49.774;8.650;2023-03-22T04:51:06;10.32;;;9.48;;
22995;SDS011;11664;49.774;8.650;2023-03-22T04:56:37;7.45;;;6.85;;
22995;SDS011;11664;49.774;8.650;2023-03-22T04:59:05;9.80;;;9.00;;
22995;SDS011;11664;49.774;8.650;2023-03-22T05:01:37;11.15;;;10.25;;
22995;SDS011;11664;49.774;8.650;2023-03-22T05:04:10;6.72;;;6.03;;
22995;SDS011;11664;49.774;8.650;2023-03-22T05:06:36;5.88;;;5.32;;
22995;SDS011;11664;49.774;8.650;2023-03-22T05:09:10;6.68;;;4.40;;
22995;SDS011;11664;49.774;8.650;2023-03-22T05:11:39;6.63;;;4.22;;
22995;SDS011;11664;49.774;8.650;2023-03-22T05:14:08;5.10;;;4.22;;
22995;SDS011;11664;49.774;8.650;2023-03-22T05:16:39;4.50;;;4.10;;
22995;SDS011;11664;49.774;8.650;2023-03-22T05:19:14;4.85;;;4.40;;
22995;SDS011;11664;49.774;8.650;2023-03-22T05:21:40;8.02;;;4.60;;
22995;SDS011;11664;49.774;8.650;2023-03-22T05:24:08;4.72;;;4.22;;
22995;SDS011;11664;49.774;8.650;2023-03-22T05:26:39;6.70;;;5.05;;
22995;SDS011;11664;49.774;8.650;2023-03-22T05:29:30;6.05;;;4.68;;
22995;SDS011;11664;49.774;8.650;2023-03-22T05:32:03;5.07;;;4.30;;
22995;SDS011;11664;49.774;8.650;2023-03-22T05:34:35;7.93;;;4.53;;
22995;SDS011;11664;49.774;8.650;2023-03-22T05:37:01;6.05;;;4.70;;
22995;SDS011;11664;49.774;8.650;2023-03-22T05:39:33;8.10;;;4.53;;
22995;SDS011;11664;49.774;8.650;2023-03-22T05:41:59;4.85;;;4.35;;
22995;SDS011;11664;49.774;8.650;2023-03-22T05:44:31;5.68;;;4.60;;
22995;SDS011;11664;49.774;8.650;2023-03-22T05:47:05;5.80;;;4.53;;
22995;SDS011;11664;49.774;8.650;2023-03-22T05:49:34;7.10;;;5.00;;
22995;SDS011;11664;49.774;8.650;2023-03-22T05:52:06;5.57;;;4.53;;
22995;SDS011;11664;49.774;8.650;2023-03-22T05:54:34;5.30;;;4.38;;
22995;SDS011;11664;49.774;8.650;2023-03-22T05:56:59;4.88;;;4.47;;
22995;SDS011;11664;49.774;8.650;2023-03-22T05:59:31;5.55;;;4.72;;
22995;SDS011;11664;49.774;8.650;2023-03-22T06:02:03;8.38;;;5.15;;
22995;SDS011;11664;49.774;8.650;2023-03-22T06:04:32;5.30;;;4.78;;
22995;SDS011;11664;49.774;8.650;2023-03-22T06:07:03;5.05;;;4.63;;
22995;SDS011;11664;49.774;8.650;2023-03-22T06:09:32;8.45;;;4.90;;
22995;SDS011;11664;49.774;8.650;2023-03-22T06:12:01;5.40;;;4.90;;
22995;SDS011;11664;49.774;8.650;2023-03-22T06:17:19;5.93;;;5.30;;
22995;SDS011;11664;49.774;8.650;2023-03-22T06:19:49;7.78;;;5.07;;
22995;SDS011;11664;49.774;8.650;2023-03-22T06:22:17;6.82;;;5.15;;
22995;SDS011;11664;49.774;8.650;2023-03-22T06:24:46;5.32;;;4.65;;
22995;SDS011;11664;49.774;8.650;2023-03-22T06:27:12;6.05;;;4.70;;
22995;SDS011;11664;49.774;8.650;2023-03-22T06:29:44;5.95;;;4.70;;
22995;SDS011;11664;49.774;8.650;2023-03-22T06:32:17;5.80;;;5.28;;
22995;SDS011;11664;49.774;8.650;2023-03-22T06:34:52;6.20;;;5.60;;
22995;SDS011;11664;49.774;8.650;2023-03-22T06:37:24;5.85;;;5.28;;
22995;SDS011;11664;49.774;8.650;2023-03-22T06:39:59;7.50;;;5.03;;
22995;SDS011;11664;49.774;8.650;2023-03-22T06:42:30;5.70;;;4.70;;
22995;SDS011;11664;49.774;8.650;2023-03-22T06:45:03;7.65;;;5.80;;
22995;SDS011;11664;49.774;8.650;2023-03-22T06:47:30;7.05;;;6.38;;
22995;SDS011;11664;49.774;8.650;2023-03-22T06:50:04;6.38;;;5.80;;
22995;SDS011;11664;49.774;8.650;2023-03-22T06:52:36;5.85;;;5.38;;
22995;SDS011;11664;49.774;8.650;2023-03-22T06:55:05;6.68;;;5.95;;
22995;SDS011;11664;49.774;8.650;2023-03-22T06:57:34;5.88;;;5.38;;
22995;SDS011;11664;49.774;8.650;2023-03-22T06:59:59;6.63;;;5.30;;
22995;SDS011;11664;49.774;8.650;2023-03-22T07:05:09;6.65;;;6.15;;
22995;SDS011;11664;49.774;8.650;2023-03-22T07:10:57;7.45;;;4.85;;
22995;SDS011;11664;49.774;8.650;2023-03-22T07:13:26;5.50;;;5.00;;
22995;SDS011;11664;49.774;8.650;2023-03-22T07:15:55;7.53;;;5.53;;
22995;SDS011;11664;49.774;8.650;2023-03-22T07:18:25;5.88;;;5.20;;
22995;SDS011;11664;49.774;8.650;2023-03-22T07:20:54;6.18;;;5.57;;
22995;SDS011;11664;49.774;8.650;2023-03-22T07:23:20;7.13;;;5.00;;
22995;SDS011;11664;49.774;8.650;2023-03-22T07:25:51;6.80;;;5.57;;
22995;SDS011;11664;49.774;8.650;2023-03-22T07:28:25;6.30;;;4.63;;
22995;SDS011;11664;49.774;8.650;2023-03-22T07:31:04;7.63;;;4.80;;
22995;SDS011;11664;49.774;8.650;2023-03-22T07:33:34;4.90;;;4.40;;
22995;SDS011;11664;49.774;8.650;2023-03-22T07:36:00;7.03;;;5.07;;
22995;SDS011;11664;49.774;8.650;2023-03-22T07:38:35;6.93;;;6.45;;
22995;SDS011;11664;49.774;8.650;2023-03-22T07:41:07;6.72;;;6.13;;
22995;SDS011;11664;49.774;8.650;2023-03-22T07:43:35;6.88;;;4.88;;
22995;SDS011;11664;49.774;8.650;2023-03-22T07:46:07;5.43;;;4.97;;
22995;SDS011;11664;49.774;8.650;2023-03-22T07:48:33;5.32;;;4.82;;
22995;SDS011;11664;49.774;8.650;2023-03-22T07:51:04;5.15;;;4.75;;
22995;SDS011;11664;49.774;8.650;2023-03-22T07:53:36;5.78;;;5.22;;
22995;SDS011;11664;49.774;8.650;2023-03-22T07:56:05;8.98;;;8.25;;
22995;SDS011;11664;49.774;8.650;2023-03-22T07:58:34;9.13;;;8.32;;
22995;SDS011;11664;49.774;8.650;2023-03-22T08:01:03;6.47;;;6.07;;
22995;SDS011;11664;49.774;8.650;2023-03-22T08:03:34;6.10;;;5.60;;
22995;SDS011;11664;49.774;8.650;2023-03-22T08:06:01;5.18;;;4.53;;
22995;SDS011;11664;49.774;8.650;2023-03-22T08:08:32;8.15;;;5.78;;
22995;SDS011;11664;49.774;8.650;2023-03-22T08:11:01;13.68;;;12.82;;
22995;SDS011;11664;49.774;8.650;2023-03-22T08:13:51;18.58;;;17.65;;
22995;SDS011;11664;49.774;8.650;2023-03-22T08:16:36;30.25;;;28.52;;
22995;SDS011;11664;49.774;8.650;2023-03-22T08:19:02;32.95;;;31.10;;
22995;SDS011;11664;49.774;8.650;2023-03-22T08:21:33;45.95;;;43.50;;
22995;SDS011;11664;49.774;8.650;2023-03-22T08:23:59;31.92;;;29.90;;
22995;SDS011;11664;49.774;8.650;2023-03-22T08:26:27;35.45;;;33.58;;
22995;SDS011;11664;49.774;8.650;2023-03-22T08:28:56;21.60;;;20.37;;
22995;SDS011;11664;49.774;8.650;2023-03-22T08:34:44;11.05;;;10.45;;
22995;SDS011;11664;49.774;8.650;2023-03-22T08:37:10;11.18;;;10.40;;
22995;SDS011;11664;49.774;8.650;2023-03-22T08:39:39;7.55;;;7.00;;
22995;SDS011;11664;49.774;8.650;2023-03-22T08:42:06;8.90;;;8.20;;
22995;SDS011;11664;49.774;8.650;2023-03-22T08:44:42;7.05;;;6.50;;
22995;SDS011;11664;49.774;8.650;2023-03-22T08:47:14;6.20;;;5.78;;
22995;SDS011;11664;49.774;8.650;2023-03-22T08:49:55;7.13;;;6.53;;
22995;SDS011;11664;49.774;8.650;2023-03-22T08:52:26;6.15;;;5.75;;
22995;SDS011;11664;49.774;8.650;2023-03-22T08:54:52;7.20;;;6.15;;
22995;SDS011;11664;49.774;8.650;2023-03-22T08:57:20;5.28;;;4.88;;
22995;SDS011;11664;49.774;8.650;2023-03-22T08:59:47;5.32;;;5.03;;
22995;SDS011;11664;49.774;8.650;2023-03-22T09:02:13;5.25;;;4.75;;
22995;SDS011;11664;49.774;8.650;2023-03-22T09:04:39;5.20;;;4.40;;
22995;SDS011;11664;49.774;8.650;2023-03-22T09:07:05;5.82;;;5.43;;
22995;SDS011;11664;49.774;8.650;2023-03-22T09:09:30;12.00;;;5.50;;
22995;SDS011;11664;49.774;8.650;2023-03-22T09:11:56;6.20;;;5.60;;
22995;SDS011;11664;49.774;8.650;2023-03-22T09:14:24;6.80;;;6.13;;
22995;SDS011;11664;49.774;8.650;2023-03-22T09:16:59;7.43;;;5.78;;
22995;SDS011;11664;49.774;8.650;2023-03-22T09:19:25;6.45;;;5.95;;
22995;SDS011;11664;49.774;8.650;2023-03-22T09:21:56;6.90;;;5.20;;
22995;SDS011;11664;49.774;8.650;2023-03-22T09:24:22;4.63;;;4.22;;
22995;SDS011;11664;49.774;8.650;2023-03-22T09:26:50;5.03;;;4.63;;
22995;SDS011;11664;49.774;8.650;2023-03-22T09:29:23;4.20;;;3.90;;
22995;SDS011;11664;49.774;8.650;2023-03-22T09:31:52;4.10;;;3.80;;
22995;SDS011;11664;49.774;8.650;2023-03-22T09:34:20;4.97;;;4.43;;
22995;SDS011;11664;49.774;8.650;2023-03-22T09:36:49;5.13;;;4.13;;
22995;SDS011;11664;49.774;8.650;2023-03-22T09:39:23;6.45;;;5.05;;
22995;SDS011;11664;49.774;8.650;2023-03-22T09:41:56;5.18;;;4.55;;
22995;SDS011;11664;49.774;8.650;2023-03-22T09:44:27;5.20;;;4.80;;
22995;SDS011;11664;49.774;8.650;2023-03-22T09:46:59;4.72;;;4.32;;
22995;SDS011;11664;49.774;8.650;2023-03-22T09:49:29;4.30;;;4.00;;
22995;SDS011;11664;49.774;8.650;2023-03-22T09:54:36;5.05;;;4.68;;
22995;SDS011;11664;49.774;8.650;2023-03-22T09:57:06;5.82;;;5.32;;
22995;SDS011;11664;49.774;8.650;2023-03-22T10:06:08;5.22;;;4.72;;
22995;SDS011;11664;49.774;8.650;2023-03-22T10:11:31;5.75;;;5.45;;
22995;SDS011;11664;49.774;8.650;2023-03-22T10:14:20;6.13;;;5.40;;
22995;SDS011;11664;49.774;8.650;2023-03-22T10:16:54;5.30;;;5.00;;
22995;SDS011;11664;49.774;8.650;2023-03-22T10:22:39;4.55;;;4.35;;
22995;SDS011;11664;49.774;8.650;2023-03-22T10:27:37;3.95;;;3.75;;
22995;SDS011;11664;49.774;8.650;2023-03-22T10:30:19;4.20;;;4.00;;
22995;SDS011;11664;49.774;8.650;2023-03-22T10:32:59;4.65;;;4.35;;
22995;SDS011;11664;49.774;8.650;2023-03-22T10:35:30;4.80;;;4.45;;
22995;SDS011;11664;49.774;8.650;2023-03-22T10:37:57;4.32;;;4.05;;
22995;SDS011;11664;49.774;8.650;2023-03-22T10:40:32;5.35;;;5.00;;
22995;SDS011;11664;49.774;8.650;2023-03-22T10:46:11;7.82;;;7.43;;
22995;SDS011;11664;49.774;8.650;2023-03-22T10:49:01;7.95;;;7.45;;
22995;SDS011;11664;49.774;8.650;2023-03-22T10:54:20;14.63;;;13.82;;
22995;SDS011;11664;49.774;8.650;2023-03-22T10:56:53;9.55;;;9.05;;
22995;SDS011;11664;49.774;8.650;2023-03-22T11:02:24;4.25;;;4.05;;
22995;SDS011;11664;49.774;8.650;2023-03-22T11:05:17;4.53;;;4.07;;
22995;SDS011;11664;49.774;8.650;2023-03-22T11:07:48;4.00;;;3.70;;
22995;SDS011;11664;49.774;8.650;2023-03-22T11:10:19;3.78;;;3.55;;
22995;SDS011;11664;49.774;8.650;2023-03-22T11:12:52;3.75;;;3.55;;
22995;SDS011;11664;49.774;8.650;2023-03-22T11:15:50;4.22;;;3.92;;
22995;SDS011;11664;49.774;8.650;2023-03-22T11:18:19;5.07;;;4.75;;
22995;SDS011;11664;49.774;8.650;2023-03-22T11:23:34;3.78;;;3.53;;
22995;SDS011;11664;49.774;8.650;2023-03-22T11:26:12;3.47;;;3.28;;
22995;SDS011;11664;49.774;8.650;2023-03-22T11:28:45;3.90;;;3.63;;
22995;SDS011;11664;49.774;8.650;2023-03-22T11:31:17;3.28;;;3.08;;
22995;SDS011;11664;49.774;8.650;2023-03-22T11:34:13;3.78;;;3.47;;
22995;SDS011;11664;49.774;8.650;2023-03-22T11:36:43;3.90;;;3.70;;
22995;SDS011;11664;49.774;8.650;2023-03-22T11:39:16;3.42;;;3.22;;
22995;SDS011;11664;49.774;8.650;2023-03-22T11:41:49;4.65;;;4.20;;
22995;SDS011;11664;49.774;8.650;2023-03-22T11:44:16;4.78;;;4.47;;
22995;SDS011;11664;49.774;8.650;2023-03-22T11:46:50;4.95;;;4.65;;
22995;SDS011;11664;49.774;8.650;2023-03-22T11:49:19;3.70;;;3.50;;
22995;SDS011;11664;49.774;8.650;2023-03-22T11:51:47;4.75;;;4.53;;
22995;SDS011;11664;49.774;8.650;2023-03-22T11:54:29;5.72;;;5.38;;
22995;SDS011;11664;49.774;8.650;2023-03-22T11:57:01;5.47;;;4.40;;
22995;SDS011;11664;49.774;8.650;2023-03-22T12:02:21;3.95;;;3.75;;
22995;SDS011;11664;49.774;8.650;2023-03-22T12:05:11;4.13;;;3.85;;
22995;SDS011;11664;49.774;8.650;2023-03-22T12:07:52;5.13;;;4.82;;
22995;SDS011;11664;49.774;8.650;2023-03-22T12:13:20;4.72;;;4.32;;
22995;SDS011;11664;49.774;8.650;2023-03-22T12:16:27;5.43;;;5.13;;
22995;SDS011;11664;49.774;8.650;2023-03-22T12:19:12;3.95;;;3.75;;
22995;SDS011;11664;49.774;8.650;2023-03-22T12:22:01;4.28;;;4.03;;
22995;SDS011;11664;49.774;8.650;2023-03-22T12:24:36;3.72;;;3.53;;
22995;SDS011;11664;49.774;8.650;2023-03-22T12:27:22;3.40;;;3.20;;
22995;SDS011;11664;49.774;8.650;2023-03-22T12:33:01;3.47;;;3.28;;
22995;SDS011;11664;49.774;8.650;2023-03-22T12:35:40;2.83;;;2.72;;
22995;SDS011;11664;49.774;8.650;2023-03-22T12:38:18;4.20;;;3.90;;
22995;SDS011;11664;49.774;8.650;2023-03-22T12:40:59;4.60;;;4.30;;
22995;SDS011;11664;49.774;8.650;2023-03-22T12:52:18;3.55;;;3.35;;
22995;SDS011;11664;49.774;8.650;2023-03-22T12:54:51;3.53;;;3.38;;
22995;SDS011;11664;49.774;8.650;2023-03-22T12:57:18;4.10;;;3.90;;
22995;SDS011;11664;49.774;8.650;2023-03-22T12:59:44;2.85;;;2.72;;
22995;SDS011;11664;49.774;8.650;2023-03-22T13:02:27;3.88;;;3.58;;
22995;SDS011;11664;49.774;8.650;2023-03-22T13:05:03;3.08;;;2.95;;
22995;SDS011;11664;49.774;8.650;2023-03-22T13:07:52;3.53;;;3.35;;
22995;SDS011;11664;49.774;8.650;2023-03-22T13:15:36;2.92;;;2.80;;
22995;SDS011;11664;49.774;8.650;2023-03-22T13:18:14;3.40;;;3.17;;
22995;SDS011;11664;49.774;8.650;2023-03-22T13:21:27;3.90;;;3.65;;
22995;SDS011;11664;49.774;8.650;2023-03-22T13:23:58;6.53;;;6.13;;
22995;SDS011;11664;49.774;8.650;2023-03-22T13:29:22;7.73;;;7.33;;
22995;SDS011;11664;49.774;8.650;2023-03-22T13:32:31;5.93;;;5.63;;
22995;SDS011;11664;49.774;8.650;2023-03-22T13:34:54;7.75;;;6.85;;
22995;SDS011;11664;49.774;8.650;2023-03-22T13:37:28;7.55;;;7.15;;
22995;SDS011;11664;49.774;8.650;2023-03-22T13:42:46;8.45;;;8.05;;
22995;SDS011;11664;49.774;8.650;2023-03-22T13:51:40;3.57;;;3.27;;
22995;SDS011;11664;49.774;8.650;2023-03-22T14:02:45;3.72;;;3.53;;
22995;SDS011;11664;49.774;8.650;2023-03-22T14:05:21;5.28;;;4.93;;
22995;SDS011;11664;49.774;8.650;2023-03-22T14:07:55;5.38;;;4.88;;
22995;SDS011;11664;49.774;8.650;2023-03-22T14:10:43;7.25;;;6.85;;
22995;SDS011;11664;49.774;8.650;2023-03-22T14:13:16;6.60;;;6.25;;
22995;SDS011;11664;49.774;8.650;2023-03-22T14:16:08;4.80;;;4.50;;
22995;SDS011;11664;49.774;8.650;2023-03-22T14:18:43;5.53;;;5.22;;
22995;SDS011;11664;49.774;8.650;2023-03-22T14:21:22;7.18;;;6.78;;
22995;SDS011;11664;49.774;8.650;2023-03-22T14:24:06;4.50;;;4.20;;
22995;SDS011;11664;49.774;8.650;2023-03-22T14:26:43;6.78;;;6.40;;
22995;SDS011;11664;49.774;8.650;2023-03-22T14:32:41;3.58;;;3.38;;
22995;SDS011;11664;49.774;8.650;2023-03-22T14:35:09;2.72;;;2.63;;
22995;SDS011;11664;49.774;8.650;2023-03-22T14:38:08;3.75;;;2.92;;
22995;SDS011;11664;49.774;8.650;2023-03-22T14:40:46;3.03;;;2.92;;
22995;SDS011;11664;49.774;8.650;2023-03-22T14:43:22;2.80;;;2.70;;
22995;SDS011;11664;49.774;8.650;2023-03-22T14:46:02;3.85;;;3.65;;
22995;SDS011;11664;49.774;8.650;2023-03-22T14:48:34;4.10;;;3.90;;
22995;SDS011;11664;49.774;8.650;2023-03-22T14:51:03;3.38;;;3.17;;
22995;SDS011;11664;49.774;8.650;2023-03-22T14:53:40;3.38;;;3.17;;
22995;SDS011;11664;49.774;8.650;2023-03-22T14:56:21;3.58;;;3.38;;
22995;SDS011;11664;49.774;8.650;2023-03-22T14:58:49;4.82;;;4.53;;
22995;SDS011;11664;49.774;8.650;2023-03-22T15:01:22;3.53;;;3.30;;
22995;SDS011;11664;49.774;8.650;2023-03-22T15:03:53;3.10;;;2.88;;
22995;SDS011;11664;49.774;8.650;2023-03-22T15:06:28;3.00;;;2.50;;
22995;SDS011;11664;49.774;8.650;2023-03-22T15:09:07;3.58;;;3.38;;
22995;SDS011;11664;49.774;8.650;2023-03-22T15:11:54;3.63;;;3.42;;
22995;SDS011;11664;49.774;8.650;2023-03-22T15:14:37;3.50;;;3.30;;
22995;SDS011;11664;49.774;8.650;2023-03-22T15:17:08;2.95;;;2.85;;
22995;SDS011;11664;49.774;8.650;2023-03-22T15:19:43;3.38;;;2.97;;
22995;SDS011;11664;49.774;8.650;2023-03-22T15:25:02;3.20;;;3.00;;
22995;SDS011;11664;49.774;8.650;2023-03-22T15:27:30;3.47;;;3.28;;
22995;SDS011;11664;49.774;8.650;2023-03-22T15:29:57;4.75;;;4.53;;
22995;SDS011;11664;49.774;8.650;2023-03-22T15:32:26;3.72;;;3.50;;
22995;SDS011;11664;49.774;8.650;2023-03-22T15:34:55;3.45;;;3.25;;
22995;SDS011;11664;49.774;8.650;2023-03-22T15:37:28;3.60;;;3.30;;
22995;SDS011;11664;49.774;8.650;2023-03-22T15:43:08;3.38;;;3.17;;
22995;SDS011;11664;49.774;8.650;2023-03-22T15:51:19;4.40;;;4.10;;
22995;SDS011;11664;49.774;8.650;2023-03-22T15:54:11;3.25;;;3.05;;
22995;SDS011;11664;49.774;8.650;2023-03-22T15:56:50;5.50;;;5.22;;
22995;SDS011;11664;49.774;8.650;2023-03-22T15:59:23;5.72;;;5.32;;
22995;SDS011;11664;49.774;8.650;2023-03-22T16:01:54;4.07;;;3.78;;
22995;SDS011;11664;49.774;8.650;2023-03-22T16:04:22;5.82;;;5.43;;
22995;SDS011;11664;49.774;8.650;2023-03-22T16:06:49;5.38;;;5.07;;
22995;SDS011;11664;49.774;8.650;2023-03-22T16:09:16;4.15;;;3.85;;
22995;SDS011;11664;49.774;8.650;2023-03-22T16:11:51;4.18;;;3.97;;
22995;SDS011;11664;49.774;8.650;2023-03-22T16:14:23;4.18;;;3.97;;
22995;SDS011;11664;49.774;8.650;2023-03-22T16:16:51;4.05;;;3.85;;
22995;SDS011;11664;49.774;8.650;2023-03-22T16:22:36;3.55;;;3.33;;
22995;SDS011;11664;49.774;8.650;2023-03-22T16:25:03;6.22;;;5.93;;
22995;SDS011;11664;49.774;8.650;2023-03-22T16:27:29;6.03;;;5.63;;
22995;SDS011;11664;49.774;8.650;2023-03-22T16:29:55;4.00;;;3.70;;
22995;SDS011;11664;49.774;8.650;2023-03-22T16:32:24;5.03;;;4.72;;
22995;SDS011;11664;49.774;8.650;2023-03-22T16:34:54;5.53;;;5.22;;
22995;SDS011;11664;49.774;8.650;2023-03-22T16:37:26;5.93;;;5.53;;
22995;SDS011;11664;49.774;8.650;2023-03-22T16:39:52;4.95;;;4.65;;
22995;SDS011;11664;49.774;8.650;2023-03-22T16:42:23;4.10;;;3.80;;
22995;SDS011;11664;49.774;8.650;2023-03-22T16:44:52;4.05;;;3.85;;
22995;SDS011;11664;49.774;8.650;2023-03-22T16:47:36;4.60;;;4.30;;
22995;SDS011;11664;49.774;8.650;2023-03-22T16:50:03;5.63;;;5.22;;
22995;SDS011;11664;49.774;8.650;2023-03-22T16:52:38;6.88;;;6.38;;
22995;SDS011;11664;49.774;8.650;2023-03-22T16:57:56;7.95;;;7.55;;
22995;SDS011;11664;49.774;8.650;2023-03-22T17:00:34;9.25;;;8.80;;
22995;SDS011;11664;49.774;8.650;2023-03-22T17:03:01;5.72;;;5.38;;
22995;SDS011;11664;49.774;8.650;2023-03-22T17:05:35;10.02;;;9.27;;
22995;SDS011;11664;49.774;8.650;2023-03-22T17:08:21;16.25;;;15.45;;
22995;SDS011;11664;49.774;8.650;2023-03-22T17:10:46;35.40;;;33.55;;
22995;SDS011;11664;49.774;8.650;2023-03-22T17:13:12;23.63;;;22.33;;
22995;SDS011;11664;49.774;8.650;2023-03-22T17:15:47;23.10;;;21.90;;
22995;SDS011;11664;49.774;8.650;2023-03-22T17:18:16;26.10;;;24.70;;
22995;SDS011;11664;49.774;8.650;2023-03-22T17:20:51;20.20;;;19.13;;
22995;SDS011;11664;49.774;8.650;2023-03-22T17:23:20;10.93;;;10.32;;
22995;SDS011;11664;49.774;8.650;2023-03-22T17:25:52;6.82;;;6.43;;
22995;SDS011;11664;49.774;8.650;2023-03-22T17:28:17;3.78;;;3.58;;
22995;SDS011;11664;49.774;8.650;2023-03-22T17:30:49;4.53;;;4.22;;
22995;SDS011;11664;49.774;8.650;2023-03-22T17:33:24;7.05;;;6.55;;
22995;SDS011;11664;49.774;8.650;2023-03-22T17:35:49;4.07;;;3.88;;
22995;SDS011;11664;49.774;8.650;2023-03-22T17:38:20;4.78;;;4.47;;
22995;SDS011;11664;49.774;8.650;2023-03-22T17:40:49;8.00;;;7.60;;
22995;SDS011;11664;49.774;8.650;2023-03-22T17:43:18;8.70;;;8.20;;
22995;SDS011;11664;49.774;8.650;2023-03-22T17:45:44;8.27;;;7.85;;
22995;SDS011;11664;49.774;8.650;2023-03-22T17:48:15;7.40;;;7.00;;
22995;SDS011;11664;49.774;8.650;2023-03-22T17:50:40;5.97;;;5.40;;
22995;SDS011;11664;49.774;8.650;2023-03-22T17:53:13;4.15;;;3.80;;
22995;SDS011;11664;49.774;8.650;2023-03-22T17:55:51;3.67;;;3.47;;
22995;SDS011;11664;49.774;8.650;2023-03-22T17:58:22;4.28;;;4.07;;